AirNav   Bose Proflight or Bose A20?
 
 1229 users online  

50PA Pegasus Air Park
Stroudsburg, Pennsylvania, USA

GOING TO STROUDSBURG?


FAA INFORMATION EFFECTIVE 20 JUNE 2019

Location

FAA Identifier: 50PA
Lat/Long: 40-56-00.3340N / 075-20-58.6590W
40-56.005567N / 075-20.977650W
40.9334261 / -75.3496275
(estimated)
Elevation: 620 ft. / 189 m (estimated)
Variation: 12W (1985)
From city: 9 miles SW of STROUDSBURG, PA
Time zone: UTC -4 (UTC -5 during Standard Time)
Zip code: 18354

Airport Operations

Airport use: Private use. Permission required prior to landing
Activation date: 01/1974
Control tower: no
ARTCC: NEW YORK CENTER
FSS: WILLIAMSPORT FLIGHT SERVICE STATION
Attendance: DAYLIGHT HOURS
Wind indicator: yes
Segmented circle: no

Airport Communications

UNICOM: 122.7
WX ASOS at MPO (12 nm N): 120.275 (570-839-1584)
WX ASOS at ABE (17 nm S): PHONE 610-266-3579

Nearby radio navigation aids

VOR radial/distance  VOR name  Freq  Var
FJCr031/13.3ALLENTOWN VORTAC117.5010W
STWr271/22.1STILLWATER VOR/DME109.6011W
BWZr300/25.3BROADWAY VOR/DME114.2011W
LVZr153/25.5WILKES-BARRE VORTAC111.6010W
ETXr045/26.0EAST TEXAS VOR/DME110.2009W
SBJr317/34.7SOLBERG VOR/DME112.9010W
SAXr269/37.6SPARTA VORTAC115.7011W

Airport Services

Airframe service: MINOR
Powerplant service: MINOR

Runway Information

Runway E/W

Dimensions: 2700 x 100 ft. / 823 x 30 m
Surface: turf
RUNWAY E  RUNWAY W
Traffic pattern: leftleft
Obstructions: 50 ft. trees50 ft. trees

Airport Ownership and Management from official FAA records

Ownership: Privately-owned
Owner: PEGASUS GROUP, INC.
BOX 427
PORTLAND, PA 18351
Phone 570-897-6172
Manager: FRED DUCKLOE
1486 NORTH 9TH ST
STROUDSBURG, PA 18360
Phone 570-897-6172

Airport Operational Statistics

Aircraft based on the field: 15
Single engine airplanes: 12
Gliders airplanes: 2
Ultralights: 1
    

Additional Remarks

FOR CD CTC ALLENTOWN APCH AT 800-728-6322.

Instrument Procedures

There are no published instrument procedures at 50PA.

Some nearby airports with instrument procedures:

N53 - Stroudsburg-Pocono Airport (11 nm NE)
KMPO - Pocono Mountains Municipal Airport (12 nm N)
N43 - Braden Airpark (12 nm SE)
1N7 - Blairstown Airport (16 nm E)
KABE - Lehigh Valley International Airport (17 nm S)
 
Loc | Ops | Rwys | IFR | FBO | Links
Com | Nav | Svcs | Stats | Notes
Area around 50PA (Pegasus Air Park)
 
Road maps at: MapQuest Bing Google
 
Aerial photo
WARNING: Photo may not be current or correct
Aerial photo of 50PA (Pegasus Air Park)
Do you have a better or more recent aerial photo of Pegasus Air Park that you would like to share? If so, please send us your photo.

 
Sectional chart

 
Airport distance calculator
Flying to Pegasus Air Park? Find the distance to fly.

From to 50PA

Sunrise and sunset
Times for 25-Jun-2019
 Local
(UTC-4)
 Zulu
(UTC)
Morning civil twilight04:5808:58
Sunrise05:3209:32
Sunset20:3600:36
Evening civil twilight21:1001:10

Current date and time
Zulu (UTC)  25-Jun-2019 13:09:42
Local (UTC-4)  25-Jun-2019 09:09:42
 
METAR
KMPO 
12nm N 
251253Z AUTO 18004KT 3SM -RA BR BKN003 OVC008 19/19 A2988 RMK AO2 RAB31 SLP108 P0001 T01940194
KABE 
18nm S 
251251Z 10003KT 10SM FEW007 BKN015 OVC024 23/21 A2983 RMK AO2 SLP098 T02330211
K22N 
20nm W 
251255Z AUTO 00000KT 7SM SCT005 BKN026 OVC036 22/22 A2985 RMK AO2
KXLL 
23nm S 
251255Z AUTO 20005KT 10SM SCT016 BKN025 OVC029 A2985 RMK AO2
TAF
KABE 
18nm S 
251123Z 2512/2612 VRB03KT 2SM BR BKN003 OVC015 TEMPO 2512/2513 4SM BR SCT003 BKN015 FM251300 25006KT P6SM BKN025 FM251600 27008G16KT P6SM SCT045 FM260000 28006KT P6SM SCT250 FM260400 VRB03KT P6SM SCT250
NOTAMs
Click for the latest NOTAMs
NOTAMs are issued by the DoD/FAA and will open in a separate window not controlled by AirNav.

 

 
 

Would you like to see your business listed on this page?

 If your business provides an interesting product or service to pilots, flight crews, aircraft, or users of the Pegasus Air Park, you should consider listing it here.  To start the listing process, click on the button below
 
Add a business
 

Other Pages about Pegasus Air Park

Update a link
 
Copyright © AirNav, LLC. All rights reserved. Privacy Policy  Contact